sensor_id;sensor_type;location;lat;lon;timestamp;temperature;humidity
18337;DHT22;9294;51.106;7.028;2022-09-03T00:01:08;25.80;87.90
18337;DHT22;9294;51.106;7.028;2022-09-03T00:03:39;25.80;87.80
18337;DHT22;9294;51.106;7.028;2022-09-03T00:06:11;25.80;87.90
18337;DHT22;9294;51.106;7.028;2022-09-03T00:08:45;25.80;87.90
18337;DHT22;9294;51.106;7.028;2022-09-03T00:11:18;25.80;87.90
18337;DHT22;9294;51.106;7.028;2022-09-03T00:13:50;25.80;87.80
18337;DHT22;9294;51.106;7.028;2022-09-03T00:16:21;25.80;87.90
18337;DHT22;9294;51.106;7.028;2022-09-03T00:18:53;25.80;87.90
18337;DHT22;9294;51.106;7.028;2022-09-03T00:21:29;25.80;87.90
18337;DHT22;9294;51.106;7.028;2022-09-03T00:23:58;25.80;87.80
18337;DHT22;9294;51.106;7.028;2022-09-03T00:26:28;25.80;87.90
18337;DHT22;9294;51.106;7.028;2022-09-03T00:29:00;25.80;87.90
18337;DHT22;9294;51.106;7.028;2022-09-03T00:31:32;25.80;88.00
18337;DHT22;9294;51.106;7.028;2022-09-03T00:34:06;25.80;87.90
18337;DHT22;9294;51.106;7.028;2022-09-03T00:36:37;25.80;87.90
18337;DHT22;9294;51.106;7.028;2022-09-03T00:39:08;25.80;87.90
18337;DHT22;9294;51.106;7.028;2022-09-03T00:41:37;25.80;87.90
18337;DHT22;9294;51.106;7.028;2022-09-03T00:44:33;25.80;88.00
18337;DHT22;9294;51.106;7.028;2022-09-03T00:47:10;25.80;88.10
18337;DHT22;9294;51.106;7.028;2022-09-03T00:49:45;25.80;88.10
18337;DHT22;9294;51.106;7.028;2022-09-03T00:52:23;25.80;88.10
18337;DHT22;9294;51.106;7.028;2022-09-03T00:54:58;25.70;87.90
18337;DHT22;9294;51.106;7.028;2022-09-03T00:57:41;25.80;87.90
18337;DHT22;9294;51.106;7.028;2022-09-03T01:00:12;25.80;88.00
18337;DHT22;9294;51.106;7.028;2022-09-03T01:02:50;25.80;87.90
18337;DHT22;9294;51.106;7.028;2022-09-03T01:05:32;25.80;87.90
18337;DHT22;9294;51.106;7.028;2022-09-03T01:08:09;25.80;87.90
18337;DHT22;9294;51.106;7.028;2022-09-03T01:10:45;25.70;87.90
18337;DHT22;9294;51.106;7.028;2022-09-03T01:13:17;25.80;88.00
18337;DHT22;9294;51.106;7.028;2022-09-03T01:15:55;25.80;88.10
18337;DHT22;9294;51.106;7.028;2022-09-03T01:18:34;25.80;88.00
18337;DHT22;9294;51.106;7.028;2022-09-03T01:21:15;25.80;88.00
18337;DHT22;9294;51.106;7.028;2022-09-03T01:24:25;25.80;88.00
18337;DHT22;9294;51.106;7.028;2022-09-03T01:27:17;25.70;87.90
18337;DHT22;9294;51.106;7.028;2022-09-03T01:29:53;25.80;88.00
18337;DHT22;9294;51.106;7.028;2022-09-03T01:32:32;25.80;88.00
18337;DHT22;9294;51.106;7.028;2022-09-03T01:35:07;25.80;88.00
18337;DHT22;9294;51.106;7.028;2022-09-03T01:37:43;25.70;88.00
18337;DHT22;9294;51.106;7.028;2022-09-03T01:40:17;25.70;88.10
18337;DHT22;9294;51.106;7.028;2022-09-03T01:42:56;25.70;88.10
18337;DHT22;9294;51.106;7.028;2022-09-03T01:45:40;25.70;88.20
18337;DHT22;9294;51.106;7.028;2022-09-03T01:48:21;25.70;88.20
18337;DHT22;9294;51.106;7.028;2022-09-03T01:50:55;25.70;88.20
18337;DHT22;9294;51.106;7.028;2022-09-03T01:53:38;25.70;88.20
18337;DHT22;9294;51.106;7.028;2022-09-03T01:56:17;25.70;88.30
18337;DHT22;9294;51.106;7.028;2022-09-03T01:58:51;25.70;88.20
18337;DHT22;9294;51.106;7.028;2022-09-03T02:01:28;25.70;88.10
18337;DHT22;9294;51.106;7.028;2022-09-03T02:03:56;25.70;88.20
18337;DHT22;9294;51.106;7.028;2022-09-03T02:06:24;25.70;88.20
18337;DHT22;9294;51.106;7.028;2022-09-03T02:11:19;25.70;88.30
18337;DHT22;9294;51.106;7.028;2022-09-03T02:13:49;25.50;88.10
18337;DHT22;9294;51.106;7.028;2022-09-03T02:16:20;25.70;88.30
18337;DHT22;9294;51.106;7.028;2022-09-03T02:18:53;25.70;88.40
18337;DHT22;9294;51.106;7.028;2022-09-03T02:21:22;25.70;88.30
18337;DHT22;9294;51.106;7.028;2022-09-03T02:23:50;25.70;88.30
18337;DHT22;9294;51.106;7.028;2022-09-03T02:26:20;25.70;88.20
18337;DHT22;9294;51.106;7.028;2022-09-03T02:28:48;25.70;88.20
18337;DHT22;9294;51.106;7.028;2022-09-03T02:31:15;25.70;88.30
18337;DHT22;9294;51.106;7.028;2022-09-03T02:33:44;25.70;88.30
18337;DHT22;9294;51.106;7.028;2022-09-03T02:36:16;25.70;88.40
18337;DHT22;9294;51.106;7.028;2022-09-03T02:38:44;25.60;88.40
18337;DHT22;9294;51.106;7.028;2022-09-03T02:43:41;25.70;88.50
18337;DHT22;9294;51.106;7.028;2022-09-03T02:46:14;25.60;88.50
18337;DHT22;9294;51.106;7.028;2022-09-03T02:48:43;25.70;88.50
18337;DHT22;9294;51.106;7.028;2022-09-03T02:51:09;25.60;88.40
18337;DHT22;9294;51.106;7.028;2022-09-03T02:53:38;25.70;88.50
18337;DHT22;9294;51.106;7.028;2022-09-03T02:56:05;25.70;88.50
18337;DHT22;9294;51.106;7.028;2022-09-03T03:00:59;25.70;88.50
18337;DHT22;9294;51.106;7.028;2022-09-03T03:03:26;25.60;88.50
18337;DHT22;9294;51.106;7.028;2022-09-03T03:05:55;25.70;88.50
18337;DHT22;9294;51.106;7.028;2022-09-03T03:08:24;25.70;88.60
18337;DHT22;9294;51.106;7.028;2022-09-03T03:10:55;25.60;88.50
18337;DHT22;9294;51.106;7.028;2022-09-03T03:13:23;25.60;88.60
18337;DHT22;9294;51.106;7.028;2022-09-03T03:15:50;25.60;88.60
18337;DHT22;9294;51.106;7.028;2022-09-03T03:18:16;25.60;88.60
18337;DHT22;9294;51.106;7.028;2022-09-03T03:20:44;25.60;88.40
18337;DHT22;9294;51.106;7.028;2022-09-03T03:23:12;25.70;88.50
18337;DHT22;9294;51.106;7.028;2022-09-03T03:28:08;25.60;88.40
18337;DHT22;9294;51.106;7.028;2022-09-03T03:30:36;25.60;88.40
18337;DHT22;9294;51.106;7.028;2022-09-03T03:33:04;25.60;88.50
18337;DHT22;9294;51.106;7.028;2022-09-03T03:35:31;25.70;88.40
18337;DHT22;9294;51.106;7.028;2022-09-03T03:37:58;25.60;88.30
18337;DHT22;9294;51.106;7.028;2022-09-03T03:40:25;25.60;88.50
18337;DHT22;9294;51.106;7.028;2022-09-03T03:45:20;25.60;88.50
18337;DHT22;9294;51.106;7.028;2022-09-03T03:47:47;25.60;88.50
18337;DHT22;9294;51.106;7.028;2022-09-03T03:50:14;25.60;88.50
18337;DHT22;9294;51.106;7.028;2022-09-03T03:52:41;25.60;88.50
18337;DHT22;9294;51.106;7.028;2022-09-03T03:55:08;25.60;88.60
18337;DHT22;9294;51.106;7.028;2022-09-03T03:57:35;25.60;88.70
18337;DHT22;9294;51.106;7.028;2022-09-03T04:00:02;25.60;88.70
18337;DHT22;9294;51.106;7.028;2022-09-03T04:02:32;25.60;88.60
18337;DHT22;9294;51.106;7.028;2022-09-03T04:04:58;25.60;88.60
18337;DHT22;9294;51.106;7.028;2022-09-03T04:07:26;25.60;88.70
18337;DHT22;9294;51.106;7.028;2022-09-03T04:09:52;25.60;88.70
18337;DHT22;9294;51.106;7.028;2022-09-03T04:12:19;25.60;88.70
18337;DHT22;9294;51.106;7.028;2022-09-03T04:17:13;25.60;88.70
18337;DHT22;9294;51.106;7.028;2022-09-03T04:19:41;25.60;88.70
18337;DHT22;9294;51.106;7.028;2022-09-03T04:24:36;25.50;88.60
18337;DHT22;9294;51.106;7.028;2022-09-03T04:27:03;25.60;88.70
18337;DHT22;9294;51.106;7.028;2022-09-03T04:29:30;25.60;88.70
18337;DHT22;9294;51.106;7.028;2022-09-03T04:34:43;25.50;88.60
18337;DHT22;9294;51.106;7.028;2022-09-03T04:37:10;25.50;88.60
18337;DHT22;9294;51.106;7.028;2022-09-03T04:42:04;25.50;88.70
18337;DHT22;9294;51.106;7.028;2022-09-03T04:44:31;25.50;88.70
18337;DHT22;9294;51.106;7.028;2022-09-03T04:49:29;25.50;88.70
18337;DHT22;9294;51.106;7.028;2022-09-03T04:51:57;25.50;88.60
18337;DHT22;9294;51.106;7.028;2022-09-03T04:56:51;25.50;88.70
18337;DHT22;9294;51.106;7.028;2022-09-03T04:59:17;25.50;88.70
18337;DHT22;9294;51.106;7.028;2022-09-03T05:04:11;25.50;88.70
18337;DHT22;9294;51.106;7.028;2022-09-03T05:06:38;25.60;88.70
18337;DHT22;9294;51.106;7.028;2022-09-03T05:09:06;25.50;88.60
18337;DHT22;9294;51.106;7.028;2022-09-03T05:11:33;25.50;88.60
18337;DHT22;9294;51.106;7.028;2022-09-03T05:14:00;25.50;88.70
18337;DHT22;9294;51.106;7.028;2022-09-03T05:16:27;25.60;88.80
18337;DHT22;9294;51.106;7.028;2022-09-03T05:18:57;25.50;88.70
18337;DHT22;9294;51.106;7.028;2022-09-03T05:21:26;25.50;88.70
18337;DHT22;9294;51.106;7.028;2022-09-03T05:23:53;25.50;88.80
18337;DHT22;9294;51.106;7.028;2022-09-03T05:26:23;25.50;88.70
18337;DHT22;9294;51.106;7.028;2022-09-03T05:28:52;25.50;88.70
18337;DHT22;9294;51.106;7.028;2022-09-03T05:31:20;25.50;88.70
18337;DHT22;9294;51.106;7.028;2022-09-03T05:33:48;25.50;88.70
18337;DHT22;9294;51.106;7.028;2022-09-03T05:36:18;25.50;88.70
18337;DHT22;9294;51.106;7.028;2022-09-03T05:38:45;25.50;88.70
18337;DHT22;9294;51.106;7.028;2022-09-03T05:41:14;25.50;88.60
18337;DHT22;9294;51.106;7.028;2022-09-03T05:43:42;25.50;88.70
18337;DHT22;9294;51.106;7.028;2022-09-03T05:46:11;25.50;88.70
18337;DHT22;9294;51.106;7.028;2022-09-03T05:48:39;25.50;88.70
18337;DHT22;9294;51.106;7.028;2022-09-03T05:51:09;25.50;88.70
18337;DHT22;9294;51.106;7.028;2022-09-03T05:53:38;25.50;88.80
18337;DHT22;9294;51.106;7.028;2022-09-03T05:56:06;25.50;88.80
18337;DHT22;9294;51.106;7.028;2022-09-03T05:58:37;25.50;88.70
18337;DHT22;9294;51.106;7.028;2022-09-03T06:01:10;25.50;88.80
18337;DHT22;9294;51.106;7.028;2022-09-03T06:03:38;25.50;88.80
18337;DHT22;9294;51.106;7.028;2022-09-03T06:06:05;25.50;88.80
18337;DHT22;9294;51.106;7.028;2022-09-03T06:08:33;25.40;88.80
18337;DHT22;9294;51.106;7.028;2022-09-03T06:11:00;25.40;88.70
18337;DHT22;9294;51.106;7.028;2022-09-03T06:13:28;25.40;88.80
18337;DHT22;9294;51.106;7.028;2022-09-03T06:15:56;25.40;88.90
18337;DHT22;9294;51.106;7.028;2022-09-03T06:18:24;25.40;89.00
18337;DHT22;9294;51.106;7.028;2022-09-03T06:20:54;25.40;89.10
18337;DHT22;9294;51.106;7.028;2022-09-03T06:23:22;25.40;89.20
18337;DHT22;9294;51.106;7.028;2022-09-03T06:25:59;25.30;89.10
18337;DHT22;9294;51.106;7.028;2022-09-03T06:28:26;25.30;89.10
18337;DHT22;9294;51.106;7.028;2022-09-03T06:30:53;25.30;89.30
18337;DHT22;9294;51.106;7.028;2022-09-03T06:33:24;25.30;89.30
18337;DHT22;9294;51.106;7.028;2022-09-03T06:35:53;25.30;89.40
18337;DHT22;9294;51.106;7.028;2022-09-03T06:38:22;25.30;89.40
18337;DHT22;9294;51.106;7.028;2022-09-03T06:40:52;25.30;89.40
18337;DHT22;9294;51.106;7.028;2022-09-03T06:43:19;25.30;89.50
18337;DHT22;9294;51.106;7.028;2022-09-03T06:45:52;25.30;89.50
18337;DHT22;9294;51.106;7.028;2022-09-03T06:50:54;25.30;89.60
18337;DHT22;9294;51.106;7.028;2022-09-03T06:53:23;25.30;89.60
18337;DHT22;9294;51.106;7.028;2022-09-03T06:55:54;25.30;89.60
18337;DHT22;9294;51.106;7.028;2022-09-03T06:58:21;25.30;89.60
18337;DHT22;9294;51.106;7.028;2022-09-03T07:00:48;25.30;89.60
18337;DHT22;9294;51.106;7.028;2022-09-03T07:03:17;25.20;89.40
18337;DHT22;9294;51.106;7.028;2022-09-03T07:05:44;25.30;89.50
18337;DHT22;9294;51.106;7.028;2022-09-03T07:08:12;25.30;89.40
18337;DHT22;9294;51.106;7.028;2022-09-03T07:15:34;25.30;89.40
18337;DHT22;9294;51.106;7.028;2022-09-03T07:18:01;25.30;89.50
18337;DHT22;9294;51.106;7.028;2022-09-03T07:22:55;25.30;89.40
18337;DHT22;9294;51.106;7.028;2022-09-03T07:25:23;25.30;89.30
18337;DHT22;9294;51.106;7.028;2022-09-03T07:27:50;25.30;89.40
18337;DHT22;9294;51.106;7.028;2022-09-03T07:30:17;25.30;89.30
18337;DHT22;9294;51.106;7.028;2022-09-03T07:32:45;25.30;89.00
18337;DHT22;9294;51.106;7.028;2022-09-03T07:35:11;25.30;89.20
18337;DHT22;9294;51.106;7.028;2022-09-03T07:37:40;25.30;89.10
18337;DHT22;9294;51.106;7.028;2022-09-03T07:40:08;25.30;89.10
18337;DHT22;9294;51.106;7.028;2022-09-03T07:42:36;25.30;89.20
18337;DHT22;9294;51.106;7.028;2022-09-03T07:45:05;25.30;89.10
18337;DHT22;9294;51.106;7.028;2022-09-03T07:47:34;25.30;89.20
18337;DHT22;9294;51.106;7.028;2022-09-03T07:52:29;25.30;89.30
18337;DHT22;9294;51.106;7.028;2022-09-03T07:54:55;25.40;89.40
18337;DHT22;9294;51.106;7.028;2022-09-03T07:57:22;25.30;89.30
18337;DHT22;9294;51.106;7.028;2022-09-03T07:59:50;25.30;89.30
18337;DHT22;9294;51.106;7.028;2022-09-03T08:02:17;25.30;89.40
18337;DHT22;9294;51.106;7.028;2022-09-03T08:07:11;25.30;89.40
18337;DHT22;9294;51.106;7.028;2022-09-03T08:09:38;25.30;89.40
18337;DHT22;9294;51.106;7.028;2022-09-03T08:12:05;25.30;89.40
18337;DHT22;9294;51.106;7.028;2022-09-03T08:14:31;25.30;89.40
18337;DHT22;9294;51.106;7.028;2022-09-03T08:16:59;25.30;89.40
18337;DHT22;9294;51.106;7.028;2022-09-03T08:19:26;25.30;89.50
18337;DHT22;9294;51.106;7.028;2022-09-03T08:21:53;25.30;89.50
18337;DHT22;9294;51.106;7.028;2022-09-03T08:24:20;25.30;89.50
18337;DHT22;9294;51.106;7.028;2022-09-03T08:29:16;25.30;89.50
18337;DHT22;9294;51.106;7.028;2022-09-03T08:31:43;25.30;89.50
18337;DHT22;9294;51.106;7.028;2022-09-03T08:34:11;25.30;89.50
18337;DHT22;9294;51.106;7.028;2022-09-03T08:36:39;25.20;89.40
18337;DHT22;9294;51.106;7.028;2022-09-03T08:39:08;25.30;89.50
18337;DHT22;9294;51.106;7.028;2022-09-03T08:41:56;25.30;89.40
18337;DHT22;9294;51.106;7.028;2022-09-03T08:44:29;25.30;89.50
18337;DHT22;9294;51.106;7.028;2022-09-03T08:46:59;25.30;89.50
18337;DHT22;9294;51.106;7.028;2022-09-03T08:49:42;25.30;89.50
18337;DHT22;9294;51.106;7.028;2022-09-03T08:52:21;25.30;89.50
18337;DHT22;9294;51.106;7.028;2022-09-03T08:54:50;25.30;89.50
18337;DHT22;9294;51.106;7.028;2022-09-03T08:57:20;25.30;89.50
18337;DHT22;9294;51.106;7.028;2022-09-03T08:59:50;25.30;89.50
18337;DHT22;9294;51.106;7.028;2022-09-03T09:02:25;25.30;89.50
18337;DHT22;9294;51.106;7.028;2022-09-03T09:05:01;25.50;89.60
18337;DHT22;9294;51.106;7.028;2022-09-03T09:07:37;25.40;89.60
18337;DHT22;9294;51.106;7.028;2022-09-03T09:10:12;25.30;89.40
18337;DHT22;9294;51.106;7.028;2022-09-03T09:12:50;25.30;89.50
18337;DHT22;9294;51.106;7.028;2022-09-03T09:15:29;25.30;89.50
18337;DHT22;9294;51.106;7.028;2022-09-03T09:18:05;25.30;89.50
18337;DHT22;9294;51.106;7.028;2022-09-03T09:20:41;25.30;89.50
18337;DHT22;9294;51.106;7.028;2022-09-03T09:23:13;25.30;89.50
18337;DHT22;9294;51.106;7.028;2022-09-03T09:25:46;25.30;89.50
18337;DHT22;9294;51.106;7.028;2022-09-03T09:28:17;25.30;89.50
18337;DHT22;9294;51.106;7.028;2022-09-03T09:30:47;25.30;89.50
18337;DHT22;9294;51.106;7.028;2022-09-03T09:33:14;25.30;89.50
18337;DHT22;9294;51.106;7.028;2022-09-03T09:35:43;25.30;89.50
18337;DHT22;9294;51.106;7.028;2022-09-03T09:38:11;25.30;89.50
18337;DHT22;9294;51.106;7.028;2022-09-03T09:40:39;25.30;89.50
18337;DHT22;9294;51.106;7.028;2022-09-03T09:43:08;25.30;89.50
18337;DHT22;9294;51.106;7.028;2022-09-03T09:45:37;25.30;89.60
18337;DHT22;9294;51.106;7.028;2022-09-03T09:48:10;25.30;89.50
18337;DHT22;9294;51.106;7.028;2022-09-03T09:50:38;25.30;89.60
18337;DHT22;9294;51.106;7.028;2022-09-03T09:53:08;25.30;89.60
18337;DHT22;9294;51.106;7.028;2022-09-03T09:55:53;25.30;89.60
18337;DHT22;9294;51.106;7.028;2022-09-03T09:58:22;25.40;89.70
18337;DHT22;9294;51.106;7.028;2022-09-03T10:01:13;25.30;89.60
18337;DHT22;9294;51.106;7.028;2022-09-03T10:03:49;25.30;89.60
18337;DHT22;9294;51.106;7.028;2022-09-03T10:06:16;25.30;89.60
18337;DHT22;9294;51.106;7.028;2022-09-03T10:09:07;25.30;89.60
18337;DHT22;9294;51.106;7.028;2022-09-03T10:11:34;25.30;89.60
18337;DHT22;9294;51.106;7.028;2022-09-03T10:14:09;25.30;89.60
18337;DHT22;9294;51.106;7.028;2022-09-03T10:16:41;25.30;89.60
18337;DHT22;9294;51.106;7.028;2022-09-03T10:19:17;25.30;89.60
18337;DHT22;9294;51.106;7.028;2022-09-03T10:21:50;25.30;89.60
18337;DHT22;9294;51.106;7.028;2022-09-03T10:24:31;25.30;89.60
18337;DHT22;9294;51.106;7.028;2022-09-03T10:27:05;25.30;89.60
18337;DHT22;9294;51.106;7.028;2022-09-03T10:29:32;25.30;89.60
18337;DHT22;9294;51.106;7.028;2022-09-03T10:32:11;25.30;89.60
18337;DHT22;9294;51.106;7.028;2022-09-03T10:34:51;25.30;89.60
18337;DHT22;9294;51.106;7.028;2022-09-03T10:37:35;25.40;89.70
18337;DHT22;9294;51.106;7.028;2022-09-03T10:40:13;25.30;89.60
18337;DHT22;9294;51.106;7.028;2022-09-03T10:42:47;25.30;89.60
18337;DHT22;9294;51.106;7.028;2022-09-03T10:45:25;25.30;89.60
18337;DHT22;9294;51.106;7.028;2022-09-03T10:48:19;25.30;89.60
18337;DHT22;9294;51.106;7.028;2022-09-03T10:50:52;25.30;89.60
18337;DHT22;9294;51.106;7.028;2022-09-03T10:53:30;25.30;89.60
18337;DHT22;9294;51.106;7.028;2022-09-03T10:56:05;25.30;89.60
18337;DHT22;9294;51.106;7.028;2022-09-03T10:58:45;25.30;89.60
18337;DHT22;9294;51.106;7.028;2022-09-03T11:01:19;25.30;89.60
18337;DHT22;9294;51.106;7.028;2022-09-03T11:03:58;25.30;89.60
18337;DHT22;9294;51.106;7.028;2022-09-03T11:06:40;25.30;89.60
18337;DHT22;9294;51.106;7.028;2022-09-03T11:09:14;25.30;89.70
18337;DHT22;9294;51.106;7.028;2022-09-03T11:11:48;25.30;89.60
18337;DHT22;9294;51.106;7.028;2022-09-03T11:14:31;25.30;89.60
18337;DHT22;9294;51.106;7.028;2022-09-03T11:17:02;25.40;89.70
18337;DHT22;9294;51.106;7.028;2022-09-03T11:19:33;25.30;89.60
18337;DHT22;9294;51.106;7.028;2022-09-03T11:22:03;25.30;89.60
18337;DHT22;9294;51.106;7.028;2022-09-03T11:24:32;25.40;89.70
18337;DHT22;9294;51.106;7.028;2022-09-03T11:27:16;25.30;89.60
18337;DHT22;9294;51.106;7.028;2022-09-03T11:29:50;25.40;89.70
18337;DHT22;9294;51.106;7.028;2022-09-03T11:32:22;25.40;89.70
18337;DHT22;9294;51.106;7.028;2022-09-03T11:34:51;25.40;89.70
18337;DHT22;9294;51.106;7.028;2022-09-03T11:37:20;25.30;89.60
18337;DHT22;9294;51.106;7.028;2022-09-03T11:39:56;25.40;89.70
18337;DHT22;9294;51.106;7.028;2022-09-03T11:42:33;25.30;89.60
18337;DHT22;9294;51.106;7.028;2022-09-03T11:45:33;25.30;89.60
18337;DHT22;9294;51.106;7.028;2022-09-03T11:48:00;25.40;89.80
18337;DHT22;9294;51.106;7.028;2022-09-03T11:50:29;25.40;89.70
18337;DHT22;9294;51.106;7.028;2022-09-03T11:53:08;25.40;89.80
18337;DHT22;9294;51.106;7.028;2022-09-03T11:55:48;25.30;89.70
18337;DHT22;9294;51.106;7.028;2022-09-03T11:58:23;25.30;89.70
18337;DHT22;9294;51.106;7.028;2022-09-03T12:00:51;25.30;89.70
18337;DHT22;9294;51.106;7.028;2022-09-03T12:03:24;25.40;89.80
18337;DHT22;9294;51.106;7.028;2022-09-03T12:06:08;25.40;89.80
18337;DHT22;9294;51.106;7.028;2022-09-03T12:08:46;25.40;89.80
18337;DHT22;9294;51.106;7.028;2022-09-03T12:11:26;25.40;89.80
18337;DHT22;9294;51.106;7.028;2022-09-03T12:14:02;25.40;89.80
18337;DHT22;9294;51.106;7.028;2022-09-03T12:19:35;25.40;89.90
18337;DHT22;9294;51.106;7.028;2022-09-03T12:22:03;25.30;89.80
18337;DHT22;9294;51.106;7.028;2022-09-03T12:24:30;25.40;89.90
18337;DHT22;9294;51.106;7.028;2022-09-03T12:27:00;25.40;89.90
18337;DHT22;9294;51.106;7.028;2022-09-03T12:29:30;25.40;90.00
18337;DHT22;9294;51.106;7.028;2022-09-03T12:32:06;25.40;90.00
18337;DHT22;9294;51.106;7.028;2022-09-03T12:34:33;25.40;90.00
18337;DHT22;9294;51.106;7.028;2022-09-03T12:37:00;25.40;89.90
18337;DHT22;9294;51.106;7.028;2022-09-03T12:39:27;25.40;89.90
18337;DHT22;9294;51.106;7.028;2022-09-03T12:42:00;25.40;89.90
18337;DHT22;9294;51.106;7.028;2022-09-03T12:44:31;25.40;90.00
18337;DHT22;9294;51.106;7.028;2022-09-03T12:47:03;25.40;90.00
18337;DHT22;9294;51.106;7.028;2022-09-03T12:49:35;25.40;89.90
18337;DHT22;9294;51.106;7.028;2022-09-03T12:52:06;25.40;90.00
18337;DHT22;9294;51.106;7.028;2022-09-03T12:54:36;25.40;90.00
18337;DHT22;9294;51.106;7.028;2022-09-03T12:57:04;25.40;90.00
18337;DHT22;9294;51.106;7.028;2022-09-03T12:59:34;25.30;90.00
18337;DHT22;9294;51.106;7.028;2022-09-03T13:02:05;25.40;90.00
18337;DHT22;9294;51.106;7.028;2022-09-03T13:04:38;25.40;90.00
18337;DHT22;9294;51.106;7.028;2022-09-03T13:07:10;25.40;90.00
18337;DHT22;9294;51.106;7.028;2022-09-03T13:09:38;25.40;90.00
18337;DHT22;9294;51.106;7.028;2022-09-03T13:12:06;25.40;90.00
18337;DHT22;9294;51.106;7.028;2022-09-03T13:14:43;25.40;90.00
18337;DHT22;9294;51.106;7.028;2022-09-03T13:17:34;25.40;90.00
18337;DHT22;9294;51.106;7.028;2022-09-03T13:20:15;25.40;90.00
18337;DHT22;9294;51.106;7.028;2022-09-03T13:22:58;25.40;90.00
18337;DHT22;9294;51.106;7.028;2022-09-03T13:25:31;25.40;90.00
18337;DHT22;9294;51.106;7.028;2022-09-03T13:28:09;25.40;90.00
18337;DHT22;9294;51.106;7.028;2022-09-03T13:30:51;25.40;90.00
18337;DHT22;9294;51.106;7.028;2022-09-03T13:33:21;25.40;90.00
18337;DHT22;9294;51.106;7.028;2022-09-03T13:35:53;25.40;90.00
18337;DHT22;9294;51.106;7.028;2022-09-03T13:38:28;25.40;90.10
18337;DHT22;9294;51.106;7.028;2022-09-03T13:41:00;25.40;90.00
18337;DHT22;9294;51.106;7.028;2022-09-03T13:43:33;25.40;90.00
18337;DHT22;9294;51.106;7.028;2022-09-03T13:46:08;25.40;90.00
18337;DHT22;9294;51.106;7.028;2022-09-03T13:48:39;25.40;90.00
18337;DHT22;9294;51.106;7.028;2022-09-03T13:51:27;25.40;90.00
18337;DHT22;9294;51.106;7.028;2022-09-03T13:54:04;25.40;90.00
18337;DHT22;9294;51.106;7.028;2022-09-03T13:56:47;25.40;90.00
18337;DHT22;9294;51.106;7.028;2022-09-03T13:59:21;25.40;90.00
18337;DHT22;9294;51.106;7.028;2022-09-03T14:02:01;25.40;90.00
18337;DHT22;9294;51.106;7.028;2022-09-03T14:04:42;25.40;90.00
18337;DHT22;9294;51.106;7.028;2022-09-03T14:07:15;25.40;90.00
18337;DHT22;9294;51.106;7.028;2022-09-03T14:09:55;25.30;89.90
18337;DHT22;9294;51.106;7.028;2022-09-03T14:12:33;25.40;89.90
18337;DHT22;9294;51.106;7.028;2022-09-03T14:15:08;25.40;89.90
18337;DHT22;9294;51.106;7.028;2022-09-03T14:17:40;25.40;90.00
18337;DHT22;9294;51.106;7.028;2022-09-03T14:20:12;25.40;90.00
18337;DHT22;9294;51.106;7.028;2022-09-03T14:22:48;25.40;90.00
18337;DHT22;9294;51.106;7.028;2022-09-03T14:25:18;25.40;90.00
18337;DHT22;9294;51.106;7.028;2022-09-03T14:27:45;25.40;90.00
18337;DHT22;9294;51.106;7.028;2022-09-03T14:30:27;25.40;90.00
18337;DHT22;9294;51.106;7.028;2022-09-03T14:33:05;25.40;90.00
18337;DHT22;9294;51.106;7.028;2022-09-03T14:35:43;25.40;90.00
18337;DHT22;9294;51.106;7.028;2022-09-03T14:44:25;25.40;90.00
18337;DHT22;9294;51.106;7.028;2022-09-03T14:47:06;25.50;90.00
18337;DHT22;9294;51.106;7.028;2022-09-03T14:49:45;25.40;90.00
18337;DHT22;9294;51.106;7.028;2022-09-03T14:52:41;25.40;90.00
18337;DHT22;9294;51.106;7.028;2022-09-03T14:55:26;25.40;90.00
18337;DHT22;9294;51.106;7.028;2022-09-03T14:58:17;25.50;90.00
18337;DHT22;9294;51.106;7.028;2022-09-03T15:00:52;25.50;90.00
18337;DHT22;9294;51.106;7.028;2022-09-03T15:03:49;25.40;90.00
18337;DHT22;9294;51.106;7.028;2022-09-03T15:06:31;25.40;90.10
18337;DHT22;9294;51.106;7.028;2022-09-03T15:09:21;25.50;90.10
18337;DHT22;9294;51.106;7.028;2022-09-03T15:11:56;25.50;90.10
18337;DHT22;9294;51.106;7.028;2022-09-03T15:14:28;25.50;90.10
18337;DHT22;9294;51.106;7.028;2022-09-03T15:16:59;25.50;90.10
18337;DHT22;9294;51.106;7.028;2022-09-03T15:19:38;25.50;90.10
18337;DHT22;9294;51.106;7.028;2022-09-03T15:22:15;25.50;90.10
18337;DHT22;9294;51.106;7.028;2022-09-03T15:24:52;25.50;90.10
18337;DHT22;9294;51.106;7.028;2022-09-03T15:27:35;25.50;90.10
18337;DHT22;9294;51.106;7.028;2022-09-03T15:30:07;25.50;90.10
18337;DHT22;9294;51.106;7.028;2022-09-03T15:32:56;25.50;90.10
18337;DHT22;9294;51.106;7.028;2022-09-03T15:35:38;25.50;90.20
18337;DHT22;9294;51.106;7.028;2022-09-03T15:38:10;25.50;90.20
18337;DHT22;9294;51.106;7.028;2022-09-03T15:40:47;25.50;90.20
18337;DHT22;9294;51.106;7.028;2022-09-03T15:43:17;25.40;90.10
18337;DHT22;9294;51.106;7.028;2022-09-03T15:45:51;25.50;90.20
18337;DHT22;9294;51.106;7.028;2022-09-03T15:48:27;25.50;90.20
18337;DHT22;9294;51.106;7.028;2022-09-03T15:51:07;25.50;90.20
18337;DHT22;9294;51.106;7.028;2022-09-03T15:53:44;25.50;90.20
18337;DHT22;9294;51.106;7.028;2022-09-03T15:56:18;25.50;90.20
18337;DHT22;9294;51.106;7.028;2022-09-03T15:58:51;25.50;90.20
18337;DHT22;9294;51.106;7.028;2022-09-03T16:01:27;25.50;90.20
18337;DHT22;9294;51.106;7.028;2022-09-03T16:04:01;25.50;90.20
18337;DHT22;9294;51.106;7.028;2022-09-03T16:06:42;25.50;90.20
18337;DHT22;9294;51.106;7.028;2022-09-03T16:09:25;25.50;90.20
18337;DHT22;9294;51.106;7.028;2022-09-03T16:12:00;25.50;90.20
18337;DHT22;9294;51.106;7.028;2022-09-03T16:14:36;25.50;90.20
18337;DHT22;9294;51.106;7.028;2022-09-03T16:17:07;25.40;90.20
18337;DHT22;9294;51.106;7.028;2022-09-03T16:19:44;25.50;90.20
18337;DHT22;9294;51.106;7.028;2022-09-03T16:22:16;25.50;90.20
18337;DHT22;9294;51.106;7.028;2022-09-03T16:24:52;25.50;90.20
18337;DHT22;9294;51.106;7.028;2022-09-03T16:27:23;25.50;90.20
18337;DHT22;9294;51.106;7.028;2022-09-03T16:29:57;25.50;90.30
18337;DHT22;9294;51.106;7.028;2022-09-03T16:32:32;25.50;90.20
18337;DHT22;9294;51.106;7.028;2022-09-03T16:35:08;25.50;90.30
18337;DHT22;9294;51.106;7.028;2022-09-03T16:37:45;25.50;90.30
18337;DHT22;9294;51.106;7.028;2022-09-03T16:40:23;25.50;90.30
18337;DHT22;9294;51.106;7.028;2022-09-03T16:42:57;25.50;90.30
18337;DHT22;9294;51.106;7.028;2022-09-03T16:45:32;25.50;90.30
18337;DHT22;9294;51.106;7.028;2022-09-03T16:48:11;25.50;90.30
18337;DHT22;9294;51.106;7.028;2022-09-03T16:50:53;25.50;90.30
18337;DHT22;9294;51.106;7.028;2022-09-03T16:53:27;25.50;90.30
18337;DHT22;9294;51.106;7.028;2022-09-03T16:56:13;25.50;90.30
18337;DHT22;9294;51.106;7.028;2022-09-03T16:58:51;25.50;90.30
18337;DHT22;9294;51.106;7.028;2022-09-03T17:01:31;25.50;90.40
18337;DHT22;9294;51.106;7.028;2022-09-03T17:04:26;25.50;90.40
18337;DHT22;9294;51.106;7.028;2022-09-03T17:07:07;25.50;90.30
18337;DHT22;9294;51.106;7.028;2022-09-03T17:09:52;25.50;90.40
18337;DHT22;9294;51.106;7.028;2022-09-03T17:12:26;25.50;90.40
18337;DHT22;9294;51.106;7.028;2022-09-03T17:18:06;25.50;90.40
18337;DHT22;9294;51.106;7.028;2022-09-03T17:20:54;25.50;90.40